createdAt,value
2023-01-13T07:31:56.472Z,100716.94
2023-01-13T07:36:58.628Z,100708.16
2023-01-13T07:42:19.192Z,100720.97
2023-01-13T07:47:23.368Z,100719.69
2023-01-13T07:52:25.457Z,100728.22
2023-01-13T07:57:27.545Z,100730.72
2023-01-13T08:02:29.783Z,100729.75
2023-01-13T08:07:32.481Z,100725.41
2023-01-13T08:12:56.942Z,100746.47
2023-01-13T08:17:59.449Z,100758.09
2023-01-13T08:23:01.556Z,100750.16
2023-01-13T08:28:04.078Z,100756.03
2023-01-13T08:33:08.098Z,100763.88
2023-01-13T08:38:10.348Z,100764.75
2023-01-13T08:43:12.499Z,100768.97
2023-01-13T08:48:14.606Z,100762.13
2023-01-13T08:53:16.939Z,100743.44
2023-01-13T08:58:19.057Z,100762.69
2023-01-13T09:03:21.198Z,100776.25
2023-01-13T09:08:23.926Z,100761.97
2023-01-13T09:13:26.287Z,100765.59
2023-01-13T09:18:28.354Z,100775.06
2023-01-13T09:23:30.474Z,100771.59
2023-01-13T09:28:33.570Z,100779.91
2023-01-13T09:33:54.337Z,100777.50
2023-01-13T09:38:56.536Z,100767.91
2023-01-13T09:44:01.311Z,100773.41
2023-01-13T09:49:04.395Z,100755.22
2023-01-13T09:54:16.538Z,100770.03
2023-01-13T09:59:18.658Z,100764.34
2023-01-13T10:04:20.835Z,100752.72
2023-01-13T10:09:52.512Z,100762.28
2023-01-13T10:14:56.231Z,100761.50
2023-01-13T10:20:08.359Z,100743.94
2023-01-13T10:25:36.259Z,100761.22
2023-01-13T10:30:41.312Z,100754.94
2023-01-13T10:35:56.891Z,100754.03
2023-01-13T10:41:01.509Z,100755.50
2023-01-13T10:46:10.996Z,100730.88
2023-01-13T10:51:24.094Z,100726.22
2023-01-13T10:56:30.651Z,100733.34
2023-01-13T11:01:32.935Z,100732.81
2023-01-13T11:06:35.488Z,100714.56
2023-01-13T11:11:42.600Z,100708.84
2023-01-13T11:16:53.662Z,100693.91
2023-01-13T11:22:07.526Z,100703.72
2023-01-13T11:27:21.245Z,100690.31
2023-01-13T11:32:24.666Z,100675.97
2023-01-13T11:37:30.727Z,100674.22
2023-01-13T11:42:42.337Z,100678.91
2023-01-13T11:47:51.211Z,100682.38
2023-01-13T11:53:22.797Z,100674.03
2023-01-13T11:58:33.746Z,100658.00
2023-01-13T12:03:51.421Z,100642.16
2023-01-13T12:09:02.527Z,100627.50
2023-01-13T12:14:46.711Z,100622.38
2023-01-13T12:19:50.735Z,100610.44
2023-01-13T12:25:14.333Z,100590.84
2023-01-13T12:30:19.433Z,100600.50
2023-01-13T12:35:40.032Z,100592.09
2023-01-13T12:40:54.461Z,100618.88
2023-01-13T12:46:19.309Z,100610.22
2023-01-13T12:51:36.767Z,100607.00
2023-01-13T12:56:45.619Z,100591.69
2023-01-13T13:01:50.641Z,100605.94
2023-01-13T13:07:10.383Z,100600.16
2023-01-13T13:12:49.416Z,100601.19
2023-01-13T13:18:16.925Z,100625.41
2023-01-13T13:23:28.304Z,100620.06
2023-01-13T13:28:37.151Z,100620.22
2023-01-13T13:33:49.818Z,100620.88
2023-01-13T13:39:44.612Z,100623.34
2023-01-13T13:45:06.518Z,100615.09
2023-01-13T13:50:14.709Z,100608.03
2023-01-13T13:55:20.203Z,100613.41
2023-01-13T14:00:24.384Z,100627.94
2023-01-13T14:05:31.679Z,100619.63
2023-01-13T14:10:37.788Z,100641.34
2023-01-13T14:15:41.127Z,100626.47
2023-01-13T14:20:44.019Z,100641.16
2023-01-13T14:25:48.153Z,100639.31
2023-01-13T14:30:51.771Z,100641.81
2023-01-13T14:36:06.033Z,100610.56
2023-01-13T14:41:27.576Z,100617.81
2023-01-13T14:46:43.334Z,100625.03
2023-01-13T14:51:45.580Z,100636.22
2023-01-13T14:56:53.807Z,100634.97
2023-01-13T15:01:55.990Z,100652.56
2023-01-13T15:06:59.634Z,100627.31
2023-01-13T15:12:16.792Z,100629.81
2023-01-13T15:17:18.939Z,100636.84
2023-01-13T15:22:21.464Z,100619.87
2023-01-13T15:27:26.290Z,100638.50
2023-01-13T15:32:28.371Z,100624.41
2023-01-13T15:37:30.423Z,100635.38
2023-01-13T15:42:50.860Z,100642.81
2023-01-13T15:47:52.900Z,100646.53
2023-01-13T15:52:54.961Z,100649.84
2023-01-13T15:57:57.076Z,100640.16
2023-01-13T16:02:59.965Z,100660.41
2023-01-13T16:08:02.123Z,100649.28
2023-01-13T16:13:04.204Z,100655.66
2023-01-13T16:18:06.301Z,100647.19
2023-01-13T16:23:08.730Z,100650.50
2023-01-13T16:28:22.766Z,100639.12
2023-01-13T16:33:25.191Z,100651.13
2023-01-13T16:38:27.325Z,100649.25
2023-01-13T16:43:29.377Z,100640.37
2023-01-13T16:48:31.425Z,100635.59
2023-01-13T16:53:33.500Z,100646.13
2023-01-13T16:58:35.657Z,100615.97
2023-01-13T17:03:38.357Z,100639.34
2023-01-13T17:08:40.528Z,100630.44
2023-01-13T17:13:42.619Z,100654.22
2023-01-13T17:18:45.071Z,100650.09
2023-01-13T17:23:47.745Z,100653.19
2023-01-13T17:28:49.854Z,100658.75
2023-01-13T17:33:51.987Z,100672.81
2023-01-13T17:38:55.617Z,100659.81
2023-01-13T17:43:57.712Z,100660.81
2023-01-13T17:48:59.781Z,100670.34
2023-01-13T17:54:01.921Z,100674.06
2023-01-13T17:59:04.386Z,100677.37
2023-01-13T18:04:07.020Z,100676.56
2023-01-13T18:09:09.121Z,100674.47
2023-01-13T18:14:12.348Z,100657.94
2023-01-13T18:19:33.112Z,100680.28
2023-01-13T18:24:53.951Z,100669.53
2023-01-13T18:29:58.710Z,100679.47
2023-01-13T18:35:06.683Z,100686.09
2023-01-13T18:40:12.044Z,100692.47
2023-01-13T18:45:14.195Z,100679.03
2023-01-13T18:50:17.504Z,100675.31
2023-01-13T18:55:20.647Z,100695.38
2023-01-13T19:00:23.095Z,100677.16
2023-01-13T19:05:25.269Z,100686.69
2023-01-13T19:10:31.877Z,100691.66
2023-01-13T19:15:36.671Z,100704.91
2023-01-13T19:20:38.844Z,100693.31
2023-01-13T19:25:41.673Z,100698.69
2023-01-13T19:30:43.785Z,100714.00
2023-01-13T19:35:46.052Z,100700.94
2023-01-13T19:40:55.673Z,100715.84
2023-01-13T19:45:57.805Z,100716.06
2023-01-13T19:51:00.794Z,100717.72
2023-01-13T19:56:02.944Z,100739.84
2023-01-13T20:01:09.782Z,100752.91
2023-01-13T20:06:13.977Z,100761.38
2023-01-13T20:11:21.923Z,100783.31
2023-01-13T20:16:24.455Z,100771.31
2023-01-13T20:21:26.579Z,100754.56
2023-01-13T20:26:28.693Z,100756.63
2023-01-13T20:31:30.813Z,100764.28
2023-01-13T20:36:37.333Z,100753.53
2023-01-13T20:41:58.175Z,100724.34
2023-01-13T20:47:00.548Z,100719.59
2023-01-13T20:52:05.691Z,100735.94
2023-01-13T20:57:10.076Z,100760.97
2023-01-13T21:02:14.688Z,100755.59
2023-01-13T21:07:16.991Z,100756.63
2023-01-13T21:12:37.235Z,100778.78
2023-01-13T21:17:58.127Z,100761.78
2023-01-13T21:23:02.196Z,100756.03
2023-01-13T21:28:09.510Z,100736.56
2023-01-13T21:33:14.111Z,100734.91
2023-01-13T21:38:16.299Z,100734.28
2023-01-13T21:43:36.803Z,100716.69
2023-01-13T21:48:38.889Z,100717.50
2023-01-13T21:53:40.945Z,100721.66
2023-01-13T21:58:43.072Z,100693.53
2023-01-13T22:04:04.142Z,100695.19
2023-01-13T22:09:06.968Z,100711.09
2023-01-13T22:14:10.049Z,100718.13
